sensor_id;sensor_type;location;lat;lon;timestamp;P1;durP1;ratioP1;P2;durP2;ratioP2
49764;SDS011;35657;51.204;-4.130;2023-04-24T00:00:15;7.47;;;3.70;;
49764;SDS011;35657;51.204;-4.130;2023-04-24T00:02:41;8.60;;;3.60;;
49764;SDS011;35657;51.204;-4.130;2023-04-24T00:05:11;5.57;;;3.05;;
49764;SDS011;35657;51.204;-4.130;2023-04-24T00:07:38;8.32;;;3.65;;
49764;SDS011;35657;51.204;-4.130;2023-04-24T00:10:05;10.02;;;3.60;;
49764;SDS011;35657;51.204;-4.130;2023-04-24T00:12:32;7.32;;;3.05;;
49764;SDS011;35657;51.204;-4.130;2023-04-24T00:14:58;4.72;;;2.25;;
49764;SDS011;35657;51.204;-4.130;2023-04-24T00:17:24;5.55;;;2.85;;
49764;SDS011;35657;51.204;-4.130;2023-04-24T00:19:50;6.38;;;3.10;;
49764;SDS011;35657;51.204;-4.130;2023-04-24T00:22:16;7.40;;;2.78;;
49764;SDS011;35657;51.204;-4.130;2023-04-24T00:24:42;6.28;;;3.00;;
49764;SDS011;35657;51.204;-4.130;2023-04-24T00:27:08;8.27;;;2.70;;
49764;SDS011;35657;51.204;-4.130;2023-04-24T00:29:34;5.10;;;2.60;;
49764;SDS011;35657;51.204;-4.130;2023-04-24T00:31:59;7.18;;;3.42;;
49764;SDS011;35657;51.204;-4.130;2023-04-24T00:34:25;5.45;;;2.53;;
49764;SDS011;35657;51.204;-4.130;2023-04-24T00:36:51;6.70;;;3.05;;
49764;SDS011;35657;51.204;-4.130;2023-04-24T00:39:20;6.32;;;2.40;;
49764;SDS011;35657;51.204;-4.130;2023-04-24T00:41:46;4.97;;;2.47;;
49764;SDS011;35657;51.204;-4.130;2023-04-24T00:44:13;3.17;;;2.22;;
49764;SDS011;35657;51.204;-4.130;2023-04-24T00:46:39;4.88;;;2.35;;
49764;SDS011;35657;51.204;-4.130;2023-04-24T00:49:06;4.50;;;2.78;;
49764;SDS011;35657;51.204;-4.130;2023-04-24T00:51:32;7.07;;;2.90;;
49764;SDS011;35657;51.204;-4.130;2023-04-24T00:54:01;5.47;;;2.28;;
49764;SDS011;35657;51.204;-4.130;2023-04-24T00:56:26;11.27;;;2.65;;
49764;SDS011;35657;51.204;-4.130;2023-04-24T00:58:53;5.45;;;2.25;;
49764;SDS011;35657;51.204;-4.130;2023-04-24T01:01:19;3.63;;;2.40;;
49764;SDS011;35657;51.204;-4.130;2023-04-24T01:03:46;9.45;;;2.63;;
49764;SDS011;35657;51.204;-4.130;2023-04-24T01:06:15;3.47;;;2.42;;
49764;SDS011;35657;51.204;-4.130;2023-04-24T01:08:40;4.15;;;2.35;;
49764;SDS011;35657;51.204;-4.130;2023-04-24T01:11:07;6.95;;;2.25;;
49764;SDS011;35657;51.204;-4.130;2023-04-24T01:13:33;3.25;;;2.50;;
49764;SDS011;35657;51.204;-4.130;2023-04-24T01:15:59;5.70;;;3.03;;
49764;SDS011;35657;51.204;-4.130;2023-04-24T01:18:28;5.65;;;2.58;;
49764;SDS011;35657;51.204;-4.130;2023-04-24T01:20:57;4.20;;;2.40;;
49764;SDS011;35657;51.204;-4.130;2023-04-24T01:23:24;11.93;;;3.03;;
49764;SDS011;35657;51.204;-4.130;2023-04-24T01:25:49;5.53;;;2.50;;
49764;SDS011;35657;51.204;-4.130;2023-04-24T01:28:16;4.15;;;2.17;;
49764;SDS011;35657;51.204;-4.130;2023-04-24T01:30:42;6.20;;;2.33;;
49764;SDS011;35657;51.204;-4.130;2023-04-24T01:33:08;3.30;;;2.35;;
49764;SDS011;35657;51.204;-4.130;2023-04-24T01:35:35;17.92;;;3.85;;
49764;SDS011;35657;51.204;-4.130;2023-04-24T01:38:02;6.55;;;2.55;;
49764;SDS011;35657;51.204;-4.130;2023-04-24T01:40:28;4.50;;;2.65;;
49764;SDS011;35657;51.204;-4.130;2023-04-24T01:42:54;5.43;;;2.92;;
49764;SDS011;35657;51.204;-4.130;2023-04-24T01:45:20;3.97;;;2.67;;
49764;SDS011;35657;51.204;-4.130;2023-04-24T01:47:46;5.25;;;2.60;;
49764;SDS011;35657;51.204;-4.130;2023-04-24T01:50:12;5.95;;;2.75;;
49764;SDS011;35657;51.204;-4.130;2023-04-24T01:52:38;4.95;;;2.95;;
49764;SDS011;35657;51.204;-4.130;2023-04-24T01:55:04;4.38;;;2.10;;
49764;SDS011;35657;51.204;-4.130;2023-04-24T01:57:31;6.45;;;2.35;;
49764;SDS011;35657;51.204;-4.130;2023-04-24T01:59:57;7.00;;;3.22;;
49764;SDS011;35657;51.204;-4.130;2023-04-24T02:02:23;4.90;;;2.70;;
49764;SDS011;35657;51.204;-4.130;2023-04-24T02:04:52;6.32;;;2.40;;
49764;SDS011;35657;51.204;-4.130;2023-04-24T02:07:18;9.25;;;2.67;;
49764;SDS011;35657;51.204;-4.130;2023-04-24T02:09:44;9.02;;;2.38;;
49764;SDS011;35657;51.204;-4.130;2023-04-24T02:12:10;3.75;;;2.58;;
49764;SDS011;35657;51.204;-4.130;2023-04-24T02:14:35;5.88;;;2.60;;
49764;SDS011;35657;51.204;-4.130;2023-04-24T02:17:01;7.00;;;2.90;;
49764;SDS011;35657;51.204;-4.130;2023-04-24T02:19:27;9.75;;;3.17;;
49764;SDS011;35657;51.204;-4.130;2023-04-24T02:21:53;4.43;;;2.30;;
49764;SDS011;35657;51.204;-4.130;2023-04-24T02:24:18;13.32;;;3.50;;
49764;SDS011;35657;51.204;-4.130;2023-04-24T02:26:44;3.17;;;2.30;;
49764;SDS011;35657;51.204;-4.130;2023-04-24T02:29:10;5.22;;;2.50;;
49764;SDS011;35657;51.204;-4.130;2023-04-24T02:31:35;6.97;;;2.60;;
49764;SDS011;35657;51.204;-4.130;2023-04-24T02:34:01;3.78;;;2.63;;
49764;SDS011;35657;51.204;-4.130;2023-04-24T02:36:27;6.22;;;3.08;;
49764;SDS011;35657;51.204;-4.130;2023-04-24T02:38:52;4.40;;;2.67;;
49764;SDS011;35657;51.204;-4.130;2023-04-24T02:41:18;11.15;;;3.08;;
49764;SDS011;35657;51.204;-4.130;2023-04-24T02:43:44;9.02;;;3.70;;
49764;SDS011;35657;51.204;-4.130;2023-04-24T02:46:10;5.28;;;2.85;;
49764;SDS011;35657;51.204;-4.130;2023-04-24T02:48:37;4.30;;;2.75;;
49764;SDS011;35657;51.204;-4.130;2023-04-24T02:51:03;5.57;;;2.70;;
49764;SDS011;35657;51.204;-4.130;2023-04-24T02:53:29;6.95;;;2.90;;
49764;SDS011;35657;51.204;-4.130;2023-04-24T02:55:55;5.30;;;2.90;;
49764;SDS011;35657;51.204;-4.130;2023-04-24T02:58:21;6.70;;;3.25;;
49764;SDS011;35657;51.204;-4.130;2023-04-24T03:00:47;5.93;;;2.80;;
49764;SDS011;35657;51.204;-4.130;2023-04-24T03:03:13;6.50;;;3.65;;
49764;SDS011;35657;51.204;-4.130;2023-04-24T03:05:42;6.20;;;3.20;;
49764;SDS011;35657;51.204;-4.130;2023-04-24T03:08:09;7.13;;;3.97;;
49764;SDS011;35657;51.204;-4.130;2023-04-24T03:10:35;6.15;;;3.33;;
49764;SDS011;35657;51.204;-4.130;2023-04-24T03:13:01;6.65;;;3.08;;
49764;SDS011;35657;51.204;-4.130;2023-04-24T03:15:26;8.93;;;3.83;;
49764;SDS011;35657;51.204;-4.130;2023-04-24T03:17:52;6.90;;;3.40;;
49764;SDS011;35657;51.204;-4.130;2023-04-24T03:20:18;10.75;;;3.67;;
49764;SDS011;35657;51.204;-4.130;2023-04-24T03:22:44;7.13;;;3.97;;
49764;SDS011;35657;51.204;-4.130;2023-04-24T03:25:10;6.45;;;4.10;;
49764;SDS011;35657;51.204;-4.130;2023-04-24T03:27:35;9.10;;;4.10;;
49764;SDS011;35657;51.204;-4.130;2023-04-24T03:30:02;9.75;;;3.75;;
49764;SDS011;35657;51.204;-4.130;2023-04-24T03:32:28;7.28;;;3.53;;
49764;SDS011;35657;51.204;-4.130;2023-04-24T03:34:54;5.57;;;3.50;;
49764;SDS011;35657;51.204;-4.130;2023-04-24T03:37:19;6.50;;;2.95;;
49764;SDS011;35657;51.204;-4.130;2023-04-24T03:39:45;7.03;;;3.30;;
49764;SDS011;35657;51.204;-4.130;2023-04-24T03:42:11;9.25;;;4.65;;
49764;SDS011;35657;51.204;-4.130;2023-04-24T03:44:36;12.88;;;4.03;;
49764;SDS011;35657;51.204;-4.130;2023-04-24T03:47:02;10.93;;;3.72;;
49764;SDS011;35657;51.204;-4.130;2023-04-24T03:49:28;12.70;;;3.35;;
49764;SDS011;35657;51.204;-4.130;2023-04-24T03:51:53;5.90;;;3.45;;
49764;SDS011;35657;51.204;-4.130;2023-04-24T03:54:19;7.78;;;3.83;;
49764;SDS011;35657;51.204;-4.130;2023-04-24T03:56:45;9.27;;;3.67;;
49764;SDS011;35657;51.204;-4.130;2023-04-24T03:59:11;7.28;;;3.80;;
49764;SDS011;35657;51.204;-4.130;2023-04-24T04:01:37;6.25;;;2.97;;
49764;SDS011;35657;51.204;-4.130;2023-04-24T04:04:04;7.38;;;4.32;;
49764;SDS011;35657;51.204;-4.130;2023-04-24T04:06:31;14.00;;;4.00;;
49764;SDS011;35657;51.204;-4.130;2023-04-24T04:08:57;4.63;;;3.10;;
49764;SDS011;35657;51.204;-4.130;2023-04-24T04:11:24;7.55;;;4.03;;
49764;SDS011;35657;51.204;-4.130;2023-04-24T04:13:50;5.35;;;2.80;;
49764;SDS011;35657;51.204;-4.130;2023-04-24T04:16:16;5.88;;;3.70;;
49764;SDS011;35657;51.204;-4.130;2023-04-24T04:18:42;10.43;;;3.70;;
49764;SDS011;35657;51.204;-4.130;2023-04-24T04:21:09;11.65;;;3.83;;
49764;SDS011;35657;51.204;-4.130;2023-04-24T04:23:34;14.50;;;4.20;;
49764;SDS011;35657;51.204;-4.130;2023-04-24T04:26:00;11.32;;;4.43;;
49764;SDS011;35657;51.204;-4.130;2023-04-24T04:28:29;12.88;;;4.15;;
49764;SDS011;35657;51.204;-4.130;2023-04-24T04:30:58;9.90;;;3.58;;
49764;SDS011;35657;51.204;-4.130;2023-04-24T04:33:24;9.20;;;4.32;;
49764;SDS011;35657;51.204;-4.130;2023-04-24T04:35:52;14.95;;;4.45;;
49764;SDS011;35657;51.204;-4.130;2023-04-24T04:38:18;9.77;;;4.80;;
49764;SDS011;35657;51.204;-4.130;2023-04-24T04:40:45;5.15;;;3.85;;
49764;SDS011;35657;51.204;-4.130;2023-04-24T04:43:11;9.68;;;3.88;;
49764;SDS011;35657;51.204;-4.130;2023-04-24T04:45:41;8.13;;;3.55;;
49764;SDS011;35657;51.204;-4.130;2023-04-24T04:48:08;7.10;;;3.15;;
49764;SDS011;35657;51.204;-4.130;2023-04-24T04:50:37;9.32;;;4.55;;
49764;SDS011;35657;51.204;-4.130;2023-04-24T04:53:03;6.95;;;3.50;;
49764;SDS011;35657;51.204;-4.130;2023-04-24T04:55:29;7.72;;;3.35;;
49764;SDS011;35657;51.204;-4.130;2023-04-24T04:57:55;6.38;;;3.47;;
49764;SDS011;35657;51.204;-4.130;2023-04-24T05:00:21;7.43;;;3.80;;
49764;SDS011;35657;51.204;-4.130;2023-04-24T05:02:50;9.48;;;3.67;;
49764;SDS011;35657;51.204;-4.130;2023-04-24T05:05:17;11.43;;;3.75;;
49764;SDS011;35657;51.204;-4.130;2023-04-24T05:07:43;8.98;;;3.08;;
49764;SDS011;35657;51.204;-4.130;2023-04-24T05:10:09;10.98;;;3.95;;
49764;SDS011;35657;51.204;-4.130;2023-04-24T05:12:35;7.00;;;3.20;;
49764;SDS011;35657;51.204;-4.130;2023-04-24T05:15:01;6.82;;;2.92;;
49764;SDS011;35657;51.204;-4.130;2023-04-24T05:17:29;7.32;;;3.40;;
49764;SDS011;35657;51.204;-4.130;2023-04-24T05:19:54;7.80;;;3.90;;
49764;SDS011;35657;51.204;-4.130;2023-04-24T05:22:20;9.80;;;3.85;;
49764;SDS011;35657;51.204;-4.130;2023-04-24T05:24:46;13.98;;;3.72;;
49764;SDS011;35657;51.204;-4.130;2023-04-24T05:27:12;6.10;;;3.20;;
49764;SDS011;35657;51.204;-4.130;2023-04-24T05:29:38;8.68;;;3.08;;
49764;SDS011;35657;51.204;-4.130;2023-04-24T05:32:05;9.82;;;3.42;;
49764;SDS011;35657;51.204;-4.130;2023-04-24T05:34:31;7.40;;;2.92;;
49764;SDS011;35657;51.204;-4.130;2023-04-24T05:36:57;6.47;;;2.25;;
49764;SDS011;35657;51.204;-4.130;2023-04-24T05:39:23;13.07;;;3.97;;
49764;SDS011;35657;51.204;-4.130;2023-04-24T05:41:50;9.43;;;4.32;;
49764;SDS011;35657;51.204;-4.130;2023-04-24T05:44:16;5.82;;;3.15;;
49764;SDS011;35657;51.204;-4.130;2023-04-24T05:46:41;7.95;;;3.53;;
49764;SDS011;35657;51.204;-4.130;2023-04-24T05:49:07;12.60;;;4.18;;
49764;SDS011;35657;51.204;-4.130;2023-04-24T05:51:33;13.27;;;3.78;;
49764;SDS011;35657;51.204;-4.130;2023-04-24T05:54:00;7.45;;;3.88;;
49764;SDS011;35657;51.204;-4.130;2023-04-24T05:56:27;10.27;;;3.67;;
49764;SDS011;35657;51.204;-4.130;2023-04-24T05:58:53;11.52;;;4.03;;
49764;SDS011;35657;51.204;-4.130;2023-04-24T06:01:18;13.60;;;3.95;;
49764;SDS011;35657;51.204;-4.130;2023-04-24T06:03:44;11.05;;;3.70;;
49764;SDS011;35657;51.204;-4.130;2023-04-24T06:06:10;20.10;;;4.13;;
49764;SDS011;35657;51.204;-4.130;2023-04-24T06:08:36;14.23;;;4.55;;
49764;SDS011;35657;51.204;-4.130;2023-04-24T06:11:01;11.00;;;3.75;;
49764;SDS011;35657;51.204;-4.130;2023-04-24T06:13:27;14.35;;;4.05;;
49764;SDS011;35657;51.204;-4.130;2023-04-24T06:15:53;11.27;;;3.55;;
49764;SDS011;35657;51.204;-4.130;2023-04-24T06:18:19;6.55;;;3.78;;
49764;SDS011;35657;51.204;-4.130;2023-04-24T06:20:45;16.77;;;4.43;;
49764;SDS011;35657;51.204;-4.130;2023-04-24T06:23:11;12.45;;;4.25;;
49764;SDS011;35657;51.204;-4.130;2023-04-24T06:25:37;9.20;;;4.00;;
49764;SDS011;35657;51.204;-4.130;2023-04-24T06:28:03;12.32;;;3.97;;
49764;SDS011;35657;51.204;-4.130;2023-04-24T06:30:29;9.32;;;3.50;;
49764;SDS011;35657;51.204;-4.130;2023-04-24T06:32:55;10.32;;;4.47;;
49764;SDS011;35657;51.204;-4.130;2023-04-24T06:35:22;6.43;;;3.97;;
49764;SDS011;35657;51.204;-4.130;2023-04-24T06:37:48;12.88;;;4.00;;
49764;SDS011;35657;51.204;-4.130;2023-04-24T06:40:14;7.88;;;3.75;;
49764;SDS011;35657;51.204;-4.130;2023-04-24T06:42:39;8.35;;;3.25;;
49764;SDS011;35657;51.204;-4.130;2023-04-24T06:45:05;13.50;;;3.40;;
49764;SDS011;35657;51.204;-4.130;2023-04-24T06:47:31;7.40;;;3.33;;
49764;SDS011;35657;51.204;-4.130;2023-04-24T06:49:57;9.07;;;3.65;;
49764;SDS011;35657;51.204;-4.130;2023-04-24T06:52:23;13.23;;;4.22;;
49764;SDS011;35657;51.204;-4.130;2023-04-24T06:54:48;4.85;;;3.00;;
49764;SDS011;35657;51.204;-4.130;2023-04-24T06:57:14;9.25;;;4.00;;
49764;SDS011;35657;51.204;-4.130;2023-04-24T06:59:41;6.90;;;3.30;;
49764;SDS011;35657;51.204;-4.130;2023-04-24T07:02:07;9.07;;;3.85;;
49764;SDS011;35657;51.204;-4.130;2023-04-24T07:04:32;8.95;;;3.47;;
49764;SDS011;35657;51.204;-4.130;2023-04-24T07:06:58;10.35;;;3.63;;
49764;SDS011;35657;51.204;-4.130;2023-04-24T07:09:24;20.52;;;4.20;;
49764;SDS011;35657;51.204;-4.130;2023-04-24T07:11:53;18.35;;;5.80;;
49764;SDS011;35657;51.204;-4.130;2023-04-24T07:14:20;13.32;;;3.38;;
49764;SDS011;35657;51.204;-4.130;2023-04-24T07:16:46;11.40;;;3.60;;
49764;SDS011;35657;51.204;-4.130;2023-04-24T07:19:12;13.02;;;4.20;;
49764;SDS011;35657;51.204;-4.130;2023-04-24T07:21:38;12.93;;;5.05;;
49764;SDS011;35657;51.204;-4.130;2023-04-24T07:24:04;10.75;;;3.95;;
49764;SDS011;35657;51.204;-4.130;2023-04-24T07:26:34;9.75;;;3.72;;
49764;SDS011;35657;51.204;-4.130;2023-04-24T07:29:00;9.40;;;4.25;;
49764;SDS011;35657;51.204;-4.130;2023-04-24T07:31:26;8.63;;;4.10;;
49764;SDS011;35657;51.204;-4.130;2023-04-24T07:33:51;9.68;;;3.55;;
49764;SDS011;35657;51.204;-4.130;2023-04-24T07:36:17;10.73;;;3.70;;
49764;SDS011;35657;51.204;-4.130;2023-04-24T07:38:47;10.38;;;3.47;;
49764;SDS011;35657;51.204;-4.130;2023-04-24T07:41:13;12.25;;;3.50;;
49764;SDS011;35657;51.204;-4.130;2023-04-24T07:43:40;7.43;;;4.22;;
49764;SDS011;35657;51.204;-4.130;2023-04-24T07:46:07;9.05;;;3.38;;
49764;SDS011;35657;51.204;-4.130;2023-04-24T07:48:33;8.57;;;4.18;;
49764;SDS011;35657;51.204;-4.130;2023-04-24T07:50:59;12.43;;;3.83;;
49764;SDS011;35657;51.204;-4.130;2023-04-24T07:53:24;12.43;;;4.53;;
49764;SDS011;35657;51.204;-4.130;2023-04-24T07:55:50;11.95;;;4.15;;
49764;SDS011;35657;51.204;-4.130;2023-04-24T07:58:16;7.47;;;3.40;;
49764;SDS011;35657;51.204;-4.130;2023-04-24T08:00:42;12.65;;;4.20;;
49764;SDS011;35657;51.204;-4.130;2023-04-24T08:03:07;17.08;;;5.28;;
49764;SDS011;35657;51.204;-4.130;2023-04-24T08:05:33;14.75;;;4.10;;
49764;SDS011;35657;51.204;-4.130;2023-04-24T08:07:59;13.48;;;5.10;;
49764;SDS011;35657;51.204;-4.130;2023-04-24T08:10:25;10.45;;;4.05;;
49764;SDS011;35657;51.204;-4.130;2023-04-24T08:12:51;15.38;;;5.72;;
49764;SDS011;35657;51.204;-4.130;2023-04-24T08:15:16;7.47;;;3.05;;
49764;SDS011;35657;51.204;-4.130;2023-04-24T08:17:42;20.17;;;4.63;;
49764;SDS011;35657;51.204;-4.130;2023-04-24T08:20:09;7.72;;;4.50;;
49764;SDS011;35657;51.204;-4.130;2023-04-24T08:22:39;15.90;;;4.55;;
49764;SDS011;35657;51.204;-4.130;2023-04-24T08:25:08;11.45;;;3.88;;
49764;SDS011;35657;51.204;-4.130;2023-04-24T08:27:35;16.13;;;4.93;;
49764;SDS011;35657;51.204;-4.130;2023-04-24T08:30:02;10.43;;;3.75;;
49764;SDS011;35657;51.204;-4.130;2023-04-24T08:32:29;11.70;;;3.55;;
49764;SDS011;35657;51.204;-4.130;2023-04-24T08:34:55;11.77;;;3.03;;
49764;SDS011;35657;51.204;-4.130;2023-04-24T08:37:22;16.30;;;4.40;;
49764;SDS011;35657;51.204;-4.130;2023-04-24T08:39:48;15.77;;;4.43;;
49764;SDS011;35657;51.204;-4.130;2023-04-24T08:42:14;18.42;;;6.78;;
49764;SDS011;35657;51.204;-4.130;2023-04-24T08:44:42;14.05;;;4.85;;
49764;SDS011;35657;51.204;-4.130;2023-04-24T08:47:09;27.35;;;4.70;;
49764;SDS011;35657;51.204;-4.130;2023-04-24T08:49:36;10.60;;;4.20;;
49764;SDS011;35657;51.204;-4.130;2023-04-24T08:52:04;12.45;;;4.00;;
49764;SDS011;35657;51.204;-4.130;2023-04-24T08:54:31;10.88;;;4.03;;
49764;SDS011;35657;51.204;-4.130;2023-04-24T08:56:59;17.02;;;4.80;;
49764;SDS011;35657;51.204;-4.130;2023-04-24T08:59:31;13.23;;;5.55;;
49764;SDS011;35657;51.204;-4.130;2023-04-24T09:01:58;11.45;;;5.07;;
49764;SDS011;35657;51.204;-4.130;2023-04-24T09:04:25;11.18;;;3.55;;
49764;SDS011;35657;51.204;-4.130;2023-04-24T09:06:55;13.15;;;5.38;;
49764;SDS011;35657;51.204;-4.130;2023-04-24T09:09:23;13.50;;;4.05;;
49764;SDS011;35657;51.204;-4.130;2023-04-24T09:11:50;8.20;;;3.67;;
49764;SDS011;35657;51.204;-4.130;2023-04-24T09:14:18;17.05;;;5.22;;
49764;SDS011;35657;51.204;-4.130;2023-04-24T09:16:45;6.75;;;3.10;;
49764;SDS011;35657;51.204;-4.130;2023-04-24T09:19:11;6.93;;;2.50;;
49764;SDS011;35657;51.204;-4.130;2023-04-24T09:21:37;7.03;;;3.03;;
49764;SDS011;35657;51.204;-4.130;2023-04-24T09:24:05;6.75;;;2.50;;
49764;SDS011;35657;51.204;-4.130;2023-04-24T09:26:35;8.30;;;2.92;;
49764;SDS011;35657;51.204;-4.130;2023-04-24T09:29:02;4.97;;;2.50;;
49764;SDS011;35657;51.204;-4.130;2023-04-24T09:31:29;7.78;;;2.17;;
49764;SDS011;35657;51.204;-4.130;2023-04-24T09:33:56;5.60;;;2.78;;
49764;SDS011;35657;51.204;-4.130;2023-04-24T09:36:29;5.75;;;2.60;;
49764;SDS011;35657;51.204;-4.130;2023-04-24T09:39:04;12.70;;;2.22;;
49764;SDS011;35657;51.204;-4.130;2023-04-24T09:41:31;6.32;;;2.47;;
49764;SDS011;35657;51.204;-4.130;2023-04-24T09:46:36;6.55;;;2.85;;
49764;SDS011;35657;51.204;-4.130;2023-04-24T09:49:08;16.88;;;3.25;;
49764;SDS011;35657;51.204;-4.130;2023-04-24T09:51:41;11.63;;;3.38;;
49764;SDS011;35657;51.204;-4.130;2023-04-24T09:54:40;10.38;;;2.70;;
49764;SDS011;35657;51.204;-4.130;2023-04-24T09:57:01;15.45;;;3.42;;
49764;SDS011;35657;51.204;-4.130;2023-04-24T09:59:27;14.27;;;2.80;;
49764;SDS011;35657;51.204;-4.130;2023-04-24T10:01:54;18.33;;;3.10;;
49764;SDS011;35657;51.204;-4.130;2023-04-24T10:04:23;14.18;;;3.60;;
49764;SDS011;35657;51.204;-4.130;2023-04-24T10:06:51;12.75;;;3.45;;
49764;SDS011;35657;51.204;-4.130;2023-04-24T10:09:19;14.45;;;3.72;;
49764;SDS011;35657;51.204;-4.130;2023-04-24T10:11:50;12.05;;;3.22;;
49764;SDS011;35657;51.204;-4.130;2023-04-24T10:14:17;9.43;;;2.70;;
49764;SDS011;35657;51.204;-4.130;2023-04-24T10:16:49;7.22;;;3.30;;
49764;SDS011;35657;51.204;-4.130;2023-04-24T10:19:17;8.68;;;2.65;;
49764;SDS011;35657;51.204;-4.130;2023-04-24T10:21:43;21.80;;;5.18;;
49764;SDS011;35657;51.204;-4.130;2023-04-24T10:24:13;5.75;;;2.53;;
49764;SDS011;35657;51.204;-4.130;2023-04-24T10:26:40;8.63;;;2.90;;
49764;SDS011;35657;51.204;-4.130;2023-04-24T10:29:07;10.52;;;2.28;;
49764;SDS011;35657;51.204;-4.130;2023-04-24T10:31:35;6.90;;;2.47;;
49764;SDS011;35657;51.204;-4.130;2023-04-24T10:34:03;5.53;;;2.30;;
49764;SDS011;35657;51.204;-4.130;2023-04-24T10:36:30;5.00;;;2.20;;
49764;SDS011;35657;51.204;-4.130;2023-04-24T10:39:02;8.75;;;2.58;;
49764;SDS011;35657;51.204;-4.130;2023-04-24T10:41:33;7.80;;;3.17;;
49764;SDS011;35657;51.204;-4.130;2023-04-24T10:46:42;18.80;;;8.20;;
49764;SDS011;35657;51.204;-4.130;2023-04-24T10:49:09;27.73;;;9.32;;
49764;SDS011;35657;51.204;-4.130;2023-04-24T10:56:52;6.55;;;2.90;;
49764;SDS011;35657;51.204;-4.130;2023-04-24T10:59:25;3.88;;;2.85;;
49764;SDS011;35657;51.204;-4.130;2023-04-24T11:01:53;6.25;;;2.92;;
49764;SDS011;35657;51.204;-4.130;2023-04-24T11:04:29;6.85;;;3.08;;
49764;SDS011;35657;51.204;-4.130;2023-04-24T11:06:56;3.78;;;2.65;;
49764;SDS011;35657;51.204;-4.130;2023-04-24T11:09:22;5.95;;;2.70;;
49764;SDS011;35657;51.204;-4.130;2023-04-24T11:11:53;3.45;;;2.40;;
49764;SDS011;35657;51.204;-4.130;2023-04-24T11:15:16;8.13;;;2.65;;
49764;SDS011;35657;51.204;-4.130;2023-04-24T11:17:30;6.88;;;4.10;;
49764;SDS011;35657;51.204;-4.130;2023-04-24T11:20:04;4.78;;;2.60;;
49764;SDS011;35657;51.204;-4.130;2023-04-24T11:22:37;4.03;;;2.80;;
49764;SDS011;35657;51.204;-4.130;2023-04-24T11:25:07;10.23;;;3.83;;
49764;SDS011;35657;51.204;-4.130;2023-04-24T11:28:02;7.30;;;3.85;;
49764;SDS011;35657;51.204;-4.130;2023-04-24T11:30:30;13.75;;;6.65;;
49764;SDS011;35657;51.204;-4.130;2023-04-24T11:33:01;12.82;;;5.57;;
49764;SDS011;35657;51.204;-4.130;2023-04-24T11:35:28;6.47;;;4.07;;
49764;SDS011;35657;51.204;-4.130;2023-04-24T11:37:55;18.75;;;5.97;;
49764;SDS011;35657;51.204;-4.130;2023-04-24T11:40:22;21.88;;;8.50;;
49764;SDS011;35657;51.204;-4.130;2023-04-24T11:42:48;16.65;;;8.07;;
49764;SDS011;35657;51.204;-4.130;2023-04-24T11:47:43;9.75;;;3.92;;
49764;SDS011;35657;51.204;-4.130;2023-04-24T11:50:13;11.07;;;3.83;;
49764;SDS011;35657;51.204;-4.130;2023-04-24T11:52:40;7.88;;;4.10;;
49764;SDS011;35657;51.204;-4.130;2023-04-24T11:55:12;6.22;;;3.00;;
49764;SDS011;35657;51.204;-4.130;2023-04-24T11:57:53;5.47;;;2.90;;
49764;SDS011;35657;51.204;-4.130;2023-04-24T12:00:25;6.03;;;2.80;;
49764;SDS011;35657;51.204;-4.130;2023-04-24T12:03:03;13.13;;;3.17;;
49764;SDS011;35657;51.204;-4.130;2023-04-24T12:05:36;4.90;;;2.42;;
49764;SDS011;35657;51.204;-4.130;2023-04-24T12:08:02;4.85;;;2.70;;
49764;SDS011;35657;51.204;-4.130;2023-04-24T12:10:29;11.95;;;2.55;;
49764;SDS011;35657;51.204;-4.130;2023-04-24T12:12:56;5.07;;;2.25;;
49764;SDS011;35657;51.204;-4.130;2023-04-24T12:15:22;4.28;;;2.38;;
49764;SDS011;35657;51.204;-4.130;2023-04-24T12:17:50;5.28;;;2.20;;
49764;SDS011;35657;51.204;-4.130;2023-04-24T12:20:17;4.05;;;1.70;;
49764;SDS011;35657;51.204;-4.130;2023-04-24T12:22:55;4.75;;;1.50;;
49764;SDS011;35657;51.204;-4.130;2023-04-24T12:25:22;2.78;;;1.67;;
49764;SDS011;35657;51.204;-4.130;2023-04-24T12:28:10;3.33;;;1.85;;
49764;SDS011;35657;51.204;-4.130;2023-04-24T12:30:41;2.65;;;1.00;;
49764;SDS011;35657;51.204;-4.130;2023-04-24T12:33:17;2.08;;;1.23;;
49764;SDS011;35657;51.204;-4.130;2023-04-24T12:35:43;1.40;;;0.95;;
49764;SDS011;35657;51.204;-4.130;2023-04-24T12:38:10;2.20;;;1.25;;
49764;SDS011;35657;51.204;-4.130;2023-04-24T12:40:39;2.50;;;1.08;;
49764;SDS011;35657;51.204;-4.130;2023-04-24T12:43:19;8.48;;;1.33;;
49764;SDS011;35657;51.204;-4.130;2023-04-24T12:45:48;2.78;;;1.42;;
49764;SDS011;35657;51.204;-4.130;2023-04-24T12:48:13;3.63;;;1.50;;
49764;SDS011;35657;51.204;-4.130;2023-04-24T12:50:39;9.95;;;5.07;;
49764;SDS011;35657;51.204;-4.130;2023-04-24T12:53:05;6.32;;;2.78;;
49764;SDS011;35657;51.204;-4.130;2023-04-24T12:55:33;7.50;;;4.22;;
49764;SDS011;35657;51.204;-4.130;2023-04-24T12:57:59;5.22;;;3.67;;
49764;SDS011;35657;51.204;-4.130;2023-04-24T13:00:25;4.25;;;1.80;;
49764;SDS011;35657;51.204;-4.130;2023-04-24T13:02:50;3.35;;;1.50;;
49764;SDS011;35657;51.204;-4.130;2023-04-24T13:05:16;2.13;;;1.30;;
49764;SDS011;35657;51.204;-4.130;2023-04-24T13:07:42;3.95;;;1.80;;
49764;SDS011;35657;51.204;-4.130;2023-04-24T13:10:08;3.90;;;1.20;;
49764;SDS011;35657;51.204;-4.130;2023-04-24T13:12:34;4.00;;;1.45;;
49764;SDS011;35657;51.204;-4.130;2023-04-24T13:15:00;6.88;;;1.40;;
49764;SDS011;35657;51.204;-4.130;2023-04-24T13:17:25;2.35;;;1.48;;
49764;SDS011;35657;51.204;-4.130;2023-04-24T13:19:54;3.33;;;2.10;;
49764;SDS011;35657;51.204;-4.130;2023-04-24T13:22:20;1.85;;;1.33;;
49764;SDS011;35657;51.204;-4.130;2023-04-24T13:24:46;3.20;;;1.10;;
49764;SDS011;35657;51.204;-4.130;2023-04-24T13:27:14;5.55;;;1.67;;
49764;SDS011;35657;51.204;-4.130;2023-04-24T13:29:40;3.72;;;2.00;;
49764;SDS011;35657;51.204;-4.130;2023-04-24T13:32:07;2.97;;;1.58;;
49764;SDS011;35657;51.204;-4.130;2023-04-24T13:34:33;3.72;;;2.20;;
49764;SDS011;35657;51.204;-4.130;2023-04-24T13:36:59;5.80;;;2.45;;
49764;SDS011;35657;51.204;-4.130;2023-04-24T13:39:28;4.63;;;2.33;;
49764;SDS011;35657;51.204;-4.130;2023-04-24T13:41:54;4.80;;;2.15;;
49764;SDS011;35657;51.204;-4.130;2023-04-24T13:44:21;4.10;;;2.35;;
49764;SDS011;35657;51.204;-4.130;2023-04-24T13:46:50;2.55;;;1.67;;
49764;SDS011;35657;51.204;-4.130;2023-04-24T13:49:19;4.20;;;1.50;;
49764;SDS011;35657;51.204;-4.130;2023-04-24T13:51:45;2.25;;;1.65;;
49764;SDS011;35657;51.204;-4.130;2023-04-24T13:54:11;3.25;;;1.48;;
49764;SDS011;35657;51.204;-4.130;2023-04-24T13:56:37;1.65;;;0.93;;
49764;SDS011;35657;51.204;-4.130;2023-04-24T13:59:03;4.38;;;1.85;;
49764;SDS011;35657;51.204;-4.130;2023-04-24T14:01:30;3.15;;;1.85;;
49764;SDS011;35657;51.204;-4.130;2023-04-24T14:03:56;3.85;;;1.27;;
49764;SDS011;35657;51.204;-4.130;2023-04-24T14:06:22;6.60;;;2.17;;
49764;SDS011;35657;51.204;-4.130;2023-04-24T14:08:48;2.60;;;1.80;;
49764;SDS011;35657;51.204;-4.130;2023-04-24T14:11:15;3.53;;;2.08;;
49764;SDS011;35657;51.204;-4.130;2023-04-24T14:13:41;4.05;;;2.10;;
49764;SDS011;35657;51.204;-4.130;2023-04-24T14:16:07;3.22;;;1.40;;
49764;SDS011;35657;51.204;-4.130;2023-04-24T14:18:33;2.83;;;2.15;;
49764;SDS011;35657;51.204;-4.130;2023-04-24T14:20:59;3.10;;;1.60;;
49764;SDS011;35657;51.204;-4.130;2023-04-24T14:23:26;4.28;;;2.25;;
49764;SDS011;35657;51.204;-4.130;2023-04-24T14:25:52;3.08;;;2.08;;
49764;SDS011;35657;51.204;-4.130;2023-04-24T14:28:18;6.03;;;2.92;;
49764;SDS011;35657;51.204;-4.130;2023-04-24T14:30:45;4.90;;;2.70;;
49764;SDS011;35657;51.204;-4.130;2023-04-24T14:33:11;3.15;;;2.47;;
49764;SDS011;35657;51.204;-4.130;2023-04-24T14:35:37;4.40;;;2.30;;
49764;SDS011;35657;51.204;-4.130;2023-04-24T14:38:04;8.38;;;2.65;;
49764;SDS011;35657;51.204;-4.130;2023-04-24T14:40:30;8.27;;;2.13;;
49764;SDS011;35657;51.204;-4.130;2023-04-24T14:42:57;4.07;;;2.03;;